createdAt,value
2018-07-06T00:00:08.398Z,1.40
2018-07-06T00:02:48.270Z,1.43
2018-07-06T00:05:28.125Z,1.40
2018-07-06T00:08:07.990Z,1.83
2018-07-06T00:10:48.074Z,1.83
2018-07-06T00:13:27.981Z,1.37
2018-07-06T00:16:07.806Z,4.50
2018-07-06T00:18:47.750Z,1.20
2018-07-06T00:21:27.710Z,1.57
2018-07-06T00:24:07.493Z,1.10
2018-07-06T00:26:47.366Z,1.50
2018-07-06T00:29:27.478Z,1.40
2018-07-06T00:32:07.353Z,2.70
2018-07-06T00:34:41.254Z,2.10
2018-07-06T00:37:21.086Z,2.93
2018-07-06T00:40:01.050Z,2.43
2018-07-06T00:42:40.949Z,2.10
2018-07-06T00:45:20.822Z,1.73
2018-07-06T00:48:00.700Z,3.93
2018-07-06T00:50:40.625Z,3.47
2018-07-06T00:53:20.290Z,3.10
2018-07-06T00:56:00.155Z,4.17
2018-07-06T00:58:40.055Z,2.60
2018-07-06T01:01:19.894Z,6.37
2018-07-06T01:03:59.885Z,2.67
2018-07-06T01:06:39.653Z,4.10
2018-07-06T01:09:19.574Z,3.93
2018-07-06T01:12:03.708Z,4.33
2018-07-06T01:14:43.503Z,3.60
2018-07-06T01:17:23.316Z,4.47
2018-07-06T01:20:03.382Z,3.97
2018-07-06T01:22:43.219Z,3.27
2018-07-06T01:25:23.157Z,3.67
2018-07-06T01:28:03.150Z,3.50
2018-07-06T01:30:43.066Z,4.27
2018-07-06T01:33:23.069Z,3.37
2018-07-06T01:36:02.981Z,4.37
2018-07-06T01:38:42.873Z,3.50
2018-07-06T01:41:22.610Z,4.10
2018-07-06T01:44:02.574Z,3.47
2018-07-06T01:46:42.537Z,3.97
2018-07-06T01:49:22.477Z,6.57
2018-07-06T01:52:03.102Z,3.57
2018-07-06T01:54:43.039Z,5.70
2018-07-06T01:57:22.941Z,4.93
2018-07-06T02:00:02.950Z,4.30
2018-07-06T02:02:42.726Z,4.60
2018-07-06T02:05:22.546Z,7.50
2018-07-06T02:08:02.446Z,8.00
2018-07-06T02:10:42.282Z,5.47
2018-07-06T02:13:22.218Z,6.53
2018-07-06T02:16:02.261Z,6.10
2018-07-06T02:18:42.206Z,7.03
2018-07-06T02:21:22.034Z,6.13
2018-07-06T02:24:02.108Z,6.97
2018-07-06T02:26:42.030Z,7.03
2018-07-06T02:29:21.929Z,9.97
2018-07-06T02:32:01.882Z,9.73
2018-07-06T02:34:41.768Z,10.20
2018-07-06T02:37:21.657Z,11.10
2018-07-06T02:40:01.738Z,11.07
2018-07-06T02:42:41.365Z,12.20
2018-07-06T02:45:21.302Z,11.80
2018-07-06T02:48:01.266Z,15.53
2018-07-06T02:50:41.198Z,11.30
2018-07-06T02:53:21.106Z,13.70
2018-07-06T02:56:01.102Z,13.73
2018-07-06T02:58:41.181Z,15.23
2018-07-06T03:01:20.927Z,20.30
2018-07-06T03:04:00.838Z,19.83
2018-07-06T03:06:40.806Z,17.90
2018-07-06T03:09:20.726Z,18.73
2018-07-06T03:12:00.731Z,15.90
2018-07-06T03:14:40.508Z,14.47
2018-07-06T03:17:20.470Z,14.23
2018-07-06T03:20:00.424Z,12.87
2018-07-06T03:22:40.332Z,20.33
2018-07-06T03:25:20.183Z,14.47
2018-07-06T03:28:00.107Z,14.47
2018-07-06T03:30:39.974Z,15.67
2018-07-06T03:40:17.955Z,13.40
2018-07-06T03:42:57.946Z,15.07
2018-07-06T03:45:37.837Z,14.63
2018-07-06T03:48:17.755Z,11.43
2018-07-06T03:50:57.633Z,12.33
2018-07-06T03:53:37.549Z,12.73
2018-07-06T03:56:17.458Z,10.40
2018-07-06T03:58:51.323Z,11.23
2018-07-06T04:01:31.296Z,15.60
2018-07-06T04:04:11.274Z,9.57
2018-07-06T04:06:51.255Z,11.73
2018-07-06T04:09:30.998Z,13.80
2018-07-06T04:12:10.786Z,13.40
2018-07-06T04:14:50.594Z,11.60
2018-07-06T04:17:30.602Z,8.40
2018-07-06T04:20:10.542Z,7.13
2018-07-06T04:22:50.458Z,7.30
2018-07-06T04:25:30.421Z,10.70
2018-07-06T04:28:10.276Z,9.80
2018-07-06T04:30:50.230Z,9.50
2018-07-06T04:33:30.270Z,8.67
2018-07-06T04:36:10.251Z,6.40
2018-07-06T04:38:50.185Z,6.60
2018-07-06T04:41:24.003Z,9.67
2018-07-06T04:44:03.818Z,7.43
2018-07-06T04:46:43.886Z,10.60
2018-07-06T04:49:23.935Z,6.40
2018-07-06T04:52:03.903Z,9.03
2018-07-06T04:54:43.981Z,7.23
2018-07-06T04:57:23.850Z,5.17
2018-07-06T05:00:03.742Z,8.63
2018-07-06T05:02:43.525Z,7.77
2018-07-06T05:05:23.522Z,11.13
2018-07-06T05:08:03.366Z,6.60
2018-07-06T05:10:43.188Z,4.53
2018-07-06T05:13:23.023Z,8.77
2018-07-06T05:16:02.778Z,7.40
2018-07-06T05:18:42.735Z,6.37
2018-07-06T05:21:22.588Z,6.77
2018-07-06T05:24:02.590Z,6.27
2018-07-06T05:26:42.448Z,4.73
2018-07-06T05:29:22.281Z,6.00
2018-07-06T05:32:02.326Z,4.67
2018-07-06T05:34:42.434Z,4.23
2018-07-06T05:37:22.305Z,6.00
2018-07-06T05:40:03.158Z,6.03
2018-07-06T05:42:42.985Z,5.27
2018-07-06T05:45:22.899Z,6.03
2018-07-06T05:48:02.875Z,6.37
2018-07-06T05:50:42.742Z,3.77
2018-07-06T05:53:22.596Z,4.97
2018-07-06T05:56:02.493Z,3.93
2018-07-06T05:58:42.393Z,5.13
2018-07-06T06:01:22.362Z,5.43
2018-07-06T06:04:02.384Z,4.37
2018-07-06T06:06:42.242Z,4.00
2018-07-06T06:09:10.210Z,5.07
2018-07-06T06:11:38.983Z,10.63
2018-07-06T06:14:07.746Z,5.13
2018-07-06T06:16:36.546Z,7.70
2018-07-06T06:19:05.520Z,5.50
2018-07-06T06:21:34.323Z,6.47
2018-07-06T06:24:03.113Z,2.93
2018-07-06T06:26:32.521Z,4.23
2018-07-06T06:29:01.374Z,4.37
2018-07-06T06:31:30.638Z,2.83
2018-07-06T06:34:00.701Z,8.27
2018-07-06T06:36:29.996Z,4.20
2018-07-06T06:38:59.031Z,4.03
2018-07-06T06:41:28.006Z,5.40
2018-07-06T06:43:56.839Z,4.97
2018-07-06T06:46:25.712Z,5.80
2018-07-06T06:48:54.552Z,3.27
2018-07-06T06:51:23.471Z,4.17
2018-07-06T06:53:52.422Z,5.30
2018-07-06T06:56:21.266Z,3.17
2018-07-06T06:58:50.158Z,4.20
2018-07-06T07:01:19.858Z,4.40
2018-07-06T07:03:48.643Z,4.77
2018-07-06T07:06:17.463Z,3.03
2018-07-06T07:08:46.286Z,3.00
2018-07-06T07:11:15.078Z,6.30
2018-07-06T07:13:44.053Z,5.73
2018-07-06T07:16:12.929Z,4.33
2018-07-06T07:18:41.828Z,3.77
2018-07-06T07:21:10.663Z,5.23
2018-07-06T07:23:39.560Z,3.27
2018-07-06T07:26:08.334Z,5.83
2018-07-06T07:28:37.246Z,3.73
2018-07-06T07:31:06.100Z,3.40
2018-07-06T07:33:35.022Z,5.37
2018-07-06T07:36:03.906Z,3.17
2018-07-06T07:38:33.106Z,4.53
2018-07-06T07:41:02.153Z,4.57
2018-07-06T07:43:31.053Z,3.63
2018-07-06T07:46:00.039Z,5.40
2018-07-06T07:48:28.790Z,3.90
2018-07-06T07:51:09.062Z,4.27
2018-07-06T07:53:48.874Z,4.77
2018-07-06T07:56:17.799Z,3.53
2018-07-06T07:58:46.570Z,4.87
2018-07-06T08:01:15.497Z,4.40
2018-07-06T08:03:44.310Z,4.33
2018-07-06T08:06:13.073Z,8.63
2018-07-06T08:08:41.954Z,6.67
2018-07-06T08:11:10.754Z,4.70
2018-07-06T08:13:39.570Z,5.80
2018-07-06T08:16:08.322Z,4.33
2018-07-06T08:18:37.087Z,3.70
2018-07-06T08:21:05.859Z,7.20
2018-07-06T08:23:34.630Z,6.23
2018-07-06T08:26:03.398Z,6.33
2018-07-06T08:28:32.248Z,4.17
2018-07-06T08:31:01.082Z,3.77
2018-07-06T08:33:33.002Z,4.27
2018-07-06T08:36:15.720Z,5.20
2018-07-06T08:38:44.558Z,4.90
2018-07-06T08:41:13.382Z,5.30
2018-07-06T08:43:42.246Z,3.70
2018-07-06T08:46:11.083Z,3.93
2018-07-06T08:48:39.862Z,7.97
2018-07-06T08:51:08.670Z,5.35
2018-07-06T08:53:37.454Z,5.15
2018-07-06T08:56:06.377Z,2.83
2018-07-06T08:58:35.199Z,4.25
2018-07-06T09:01:04.040Z,4.55
2018-07-06T09:03:32.822Z,4.40
2018-07-06T09:06:01.648Z,3.62
2018-07-06T09:08:30.406Z,3.60
2018-07-06T09:11:00.159Z,3.87
2018-07-06T09:13:29.066Z,6.40
2018-07-06T09:15:57.829Z,5.65
2018-07-06T09:18:26.583Z,4.65
2018-07-06T09:20:54.977Z,5.63
2018-07-06T09:23:23.727Z,4.23
2018-07-06T09:25:52.696Z,4.90
2018-07-06T09:28:21.362Z,4.60
2018-07-06T09:30:50.158Z,5.60
2018-07-06T09:33:19.014Z,4.97
2018-07-06T09:35:47.805Z,4.50
2018-07-06T09:38:16.626Z,10.10
2018-07-06T09:40:45.402Z,4.60
2018-07-06T09:43:14.209Z,6.70
2018-07-06T09:45:42.992Z,5.63
2018-07-06T09:48:11.759Z,4.70
2018-07-06T09:50:40.545Z,6.03
2018-07-06T09:53:09.353Z,5.10
2018-07-06T09:55:38.130Z,5.53
2018-07-06T09:58:06.963Z,5.43
2018-07-06T10:00:40.902Z,5.43
2018-07-06T10:03:09.786Z,7.40
2018-07-06T10:05:38.561Z,7.30
2018-07-06T10:08:07.351Z,4.83
2018-07-06T10:10:36.889Z,4.77
2018-07-06T10:13:05.654Z,6.23
2018-07-06T10:15:34.410Z,10.73
2018-07-06T10:18:03.358Z,6.83
2018-07-06T10:20:32.188Z,7.80
2018-07-06T10:23:00.978Z,5.47
2018-07-06T10:25:29.863Z,4.40
2018-07-06T10:28:18.029Z,3.80
2018-07-06T10:33:07.186Z,3.80
2018-07-06T10:35:35.946Z,5.43
2018-07-06T10:38:04.811Z,4.10
2018-07-06T10:40:33.614Z,6.43
2018-07-06T10:43:02.387Z,5.63
2018-07-06T10:45:31.223Z,4.37
2018-07-06T10:47:59.965Z,6.90
2018-07-06T10:50:28.812Z,7.77
2018-07-06T10:52:57.619Z,5.65
2018-07-06T10:55:26.417Z,6.62
2018-07-06T10:57:55.238Z,5.78
2018-07-06T11:00:24.030Z,4.87
2018-07-06T11:02:52.885Z,7.73
2018-07-06T11:05:21.726Z,6.67
2018-07-06T11:07:50.497Z,4.80
2018-07-06T11:10:19.259Z,7.40
2018-07-06T11:12:47.989Z,6.57
2018-07-06T11:15:16.817Z,5.33
2018-07-06T11:17:45.632Z,8.73
2018-07-06T11:20:14.400Z,6.40
2018-07-06T11:22:43.506Z,4.50
2018-07-06T11:25:12.534Z,6.58
2018-07-06T11:27:41.453Z,4.90
2018-07-06T11:30:10.318Z,5.55
2018-07-06T11:32:39.105Z,5.92
2018-07-06T11:35:07.978Z,7.40
2018-07-06T11:37:36.749Z,5.33
2018-07-06T11:40:05.590Z,5.67
2018-07-06T11:42:34.358Z,5.40
2018-07-06T11:45:03.204Z,4.37
2018-07-06T11:47:32.066Z,4.50
2018-07-06T11:50:00.882Z,7.55
2018-07-06T11:52:29.698Z,6.42
2018-07-06T11:54:58.491Z,5.80
2018-07-06T11:57:27.270Z,5.92
2018-07-06T11:59:56.104Z,4.15
2018-07-06T12:02:24.966Z,7.03
2018-07-06T12:04:53.726Z,5.87
2018-07-06T12:07:22.518Z,4.55
2018-07-06T12:09:51.314Z,5.50
2018-07-06T12:12:20.119Z,6.65
2018-07-06T12:14:48.906Z,6.60
2018-07-06T12:17:17.714Z,5.20
2018-07-06T12:19:46.482Z,4.28
2018-07-06T12:22:15.256Z,5.12
2018-07-06T12:24:43.649Z,5.87
2018-07-06T12:27:12.478Z,4.78
2018-07-06T12:29:41.290Z,4.92
2018-07-06T12:32:10.071Z,5.75
2018-07-06T12:34:38.861Z,6.72
2018-07-06T12:37:07.637Z,6.45
2018-07-06T12:39:36.422Z,3.08
2018-07-06T12:42:05.229Z,6.15
2018-07-06T12:44:34.028Z,3.95
2018-07-06T12:47:02.792Z,9.25
2018-07-06T12:49:31.587Z,4.58
2018-07-06T12:52:00.367Z,3.80
2018-07-06T12:54:29.142Z,4.12
2018-07-06T12:56:57.936Z,4.33
2018-07-06T12:59:26.707Z,4.33
2018-07-06T13:01:55.482Z,4.28
2018-07-06T13:04:24.274Z,4.22
2018-07-06T13:06:53.073Z,3.65
2018-07-06T13:09:21.856Z,3.85
2018-07-06T13:11:50.589Z,4.33
2018-07-06T13:14:19.409Z,3.77
2018-07-06T13:16:48.219Z,6.37
2018-07-06T13:19:16.985Z,3.98
2018-07-06T13:21:46.062Z,3.08
2018-07-06T13:24:15.249Z,2.20
2018-07-06T13:26:44.042Z,3.10
2018-07-06T13:29:12.906Z,4.72
2018-07-06T13:31:41.754Z,15.25
2018-07-06T13:34:10.632Z,8.35
2018-07-06T13:36:39.422Z,2.65
2018-07-06T13:39:08.515Z,10.98
2018-07-06T13:41:37.282Z,6.55
2018-07-06T13:44:06.214Z,3.15
2018-07-06T13:46:35.052Z,2.15
2018-07-06T13:49:03.878Z,3.83
2018-07-06T13:51:32.686Z,2.80
2018-07-06T13:54:01.478Z,3.00
2018-07-06T13:56:30.223Z,1.60
2018-07-06T13:58:59.035Z,5.17
2018-07-06T14:01:27.847Z,2.05
2018-07-06T14:03:56.680Z,3.75
2018-07-06T14:06:25.428Z,2.12
2018-07-06T14:08:54.207Z,11.70
2018-07-06T14:11:23.015Z,1.65
2018-07-06T14:13:51.768Z,2.20
2018-07-06T14:16:20.606Z,6.05
2018-07-06T14:18:48.993Z,1.72
2018-07-06T14:21:17.418Z,2.37
2018-07-06T14:23:46.198Z,1.57
2018-07-06T14:26:15.038Z,10.08
2018-07-06T14:28:43.873Z,1.60
2018-07-06T14:31:12.672Z,2.60
2018-07-06T14:33:41.463Z,1.67
2018-07-06T14:36:10.258Z,1.77
2018-07-06T14:38:39.026Z,2.33
2018-07-06T14:41:07.923Z,2.47
2018-07-06T14:43:36.762Z,3.35
2018-07-06T14:46:05.592Z,1.82
2018-07-06T14:48:34.373Z,18.57
2018-07-06T14:51:03.193Z,2.27
2018-07-06T14:53:32.019Z,4.00
2018-07-06T14:56:00.851Z,3.72
2018-07-06T14:58:29.630Z,0.90
2018-07-06T15:00:58.402Z,1.20
2018-07-06T15:03:27.228Z,1.30
2018-07-06T15:05:56.640Z,5.50
2018-07-06T15:08:25.465Z,2.75
2018-07-06T15:10:56.870Z,2.85
2018-07-06T15:13:25.724Z,1.32
2018-07-06T15:15:54.534Z,12.25
2018-07-06T15:18:25.433Z,1.60
2018-07-06T15:20:54.290Z,3.52
2018-07-06T15:23:23.150Z,2.50
2018-07-06T15:25:51.575Z,1.32
2018-07-06T15:28:20.419Z,3.98
2018-07-06T15:30:49.646Z,1.75
2018-07-06T15:33:18.466Z,1.50
2018-07-06T15:35:47.351Z,3.25
2018-07-06T15:38:16.174Z,5.75
2018-07-06T15:40:45.911Z,1.65
2018-07-06T15:43:14.938Z,1.60
2018-07-06T15:45:44.593Z,2.50
2018-07-06T15:48:15.619Z,1.35
2018-07-06T15:50:47.223Z,2.62
2018-07-06T15:53:16.987Z,1.50
2018-07-06T15:55:46.282Z,3.60
2018-07-06T15:58:15.482Z,3.27
2018-07-06T16:00:44.338Z,1.72
2018-07-06T16:03:13.950Z,3.80
2018-07-06T16:05:43.784Z,1.60
2018-07-06T16:08:13.467Z,3.55
2018-07-06T16:10:42.580Z,3.17
2018-07-06T16:13:11.803Z,1.62
2018-07-06T16:15:40.927Z,3.12
2018-07-06T16:18:10.220Z,1.57
2018-07-06T16:20:39.898Z,1.25
2018-07-06T16:23:09.010Z,1.57
2018-07-06T16:25:38.631Z,6.75
2018-07-06T16:28:07.831Z,1.32
2018-07-06T16:30:36.669Z,2.62
2018-07-06T16:33:05.489Z,1.72
2018-07-06T16:35:34.278Z,4.55
2018-07-06T16:38:03.091Z,2.47
2018-07-06T16:40:31.904Z,1.50
2018-07-06T16:43:00.668Z,2.33
2018-07-06T16:45:30.999Z,7.50
2018-07-06T16:48:00.143Z,11.08
2018-07-06T16:50:29.020Z,3.35
2018-07-06T16:52:59.157Z,1.50
2018-07-06T16:55:29.201Z,1.45
2018-07-06T16:57:57.964Z,1.87
2018-07-06T17:00:27.085Z,1.42
2018-07-06T17:02:55.916Z,1.47
2018-07-06T17:05:25.328Z,1.82
2018-07-06T17:07:54.155Z,1.53
2018-07-06T17:10:28.122Z,1.57
2018-07-06T17:12:57.197Z,1.50
2018-07-06T17:15:26.913Z,1.70
2018-07-06T17:17:56.768Z,1.60
2018-07-06T17:20:25.582Z,1.17
2018-07-06T17:22:54.395Z,2.47
2018-07-06T17:25:23.220Z,1.90
2018-07-06T17:27:52.064Z,1.73
2018-07-06T17:30:20.830Z,1.50
2018-07-06T17:32:49.647Z,1.17
2018-07-06T17:35:18.458Z,2.03
2018-07-06T17:37:47.709Z,1.37
2018-07-06T17:40:16.509Z,2.15
2018-07-06T17:42:45.334Z,1.40
2018-07-06T17:45:14.125Z,1.50
2018-07-06T17:47:42.906Z,2.60
2018-07-06T17:50:11.814Z,2.50
2018-07-06T17:52:40.595Z,1.80
2018-07-06T17:55:09.427Z,2.63
2018-07-06T17:57:38.274Z,1.70
2018-07-06T18:00:07.075Z,2.10
2018-07-06T18:02:38.762Z,1.87
2018-07-06T18:05:07.605Z,2.17
2018-07-06T18:07:36.427Z,1.97
2018-07-06T18:10:05.294Z,2.17
2018-07-06T18:12:34.132Z,1.60
2018-07-06T18:15:03.025Z,1.90
2018-07-06T18:17:32.902Z,2.20
2018-07-06T18:20:02.198Z,2.83
2018-07-06T18:22:31.403Z,1.90
2018-07-06T18:25:00.191Z,2.50
2018-07-06T18:27:29.003Z,2.67
2018-07-06T18:29:57.824Z,2.17
2018-07-06T18:32:26.594Z,2.20
2018-07-06T18:34:55.397Z,2.43
2018-07-06T18:37:24.233Z,2.10
2018-07-06T18:39:53.047Z,2.93
2018-07-06T18:42:21.988Z,4.10
2018-07-06T18:44:50.794Z,2.83
2018-07-06T18:47:19.642Z,2.27
2018-07-06T18:49:49.123Z,2.30
2018-07-06T18:52:17.922Z,4.43
2018-07-06T18:54:46.895Z,2.53
2018-07-06T18:57:15.655Z,3.77
2018-07-06T18:59:45.402Z,2.03
2018-07-06T19:02:14.240Z,4.53
2018-07-06T19:04:43.078Z,3.30
2018-07-06T19:07:11.908Z,3.07
2018-07-06T19:09:40.793Z,2.97
2018-07-06T19:12:09.636Z,2.50
2018-07-06T19:14:38.763Z,2.93
2018-07-06T19:17:07.551Z,4.43
2018-07-06T19:19:36.338Z,2.60
2018-07-06T19:22:05.488Z,2.50
2018-07-06T19:24:34.278Z,4.97
2018-07-06T19:27:03.046Z,2.70
2018-07-06T19:29:31.873Z,2.70
2018-07-06T19:32:00.642Z,2.87
2018-07-06T19:34:29.422Z,2.43
2018-07-06T19:36:58.230Z,2.73
2018-07-06T19:39:26.995Z,3.27
2018-07-06T19:41:55.779Z,2.73
2018-07-06T19:44:24.598Z,2.67
2018-07-06T19:46:53.434Z,2.43
2018-07-06T19:49:22.282Z,2.50
2018-07-06T19:51:51.172Z,4.77
2018-07-06T19:54:19.907Z,4.57
2018-07-06T19:56:48.715Z,3.10
2018-07-06T19:59:17.510Z,3.07
2018-07-06T20:01:46.323Z,3.77
2018-07-06T20:04:15.100Z,3.13
2018-07-06T20:06:43.966Z,3.27
2018-07-06T20:09:12.746Z,3.67
2018-07-06T20:11:41.561Z,4.20
2018-07-06T20:14:10.316Z,3.87
2018-07-06T20:16:39.110Z,5.37
2018-07-06T20:19:07.926Z,4.87
2018-07-06T20:21:36.734Z,7.10
2018-07-06T20:24:06.667Z,4.30
2018-07-06T20:26:35.516Z,4.77
2018-07-06T20:29:04.356Z,3.37
2018-07-06T20:31:33.150Z,3.20
2018-07-06T20:34:01.991Z,2.60
2018-07-06T20:36:30.796Z,3.27
2018-07-06T20:38:59.606Z,3.43
2018-07-06T20:41:28.368Z,3.97
2018-07-06T20:43:57.182Z,3.90
2018-07-06T20:46:25.959Z,2.90
2018-07-06T20:48:54.741Z,6.07
2018-07-06T20:51:24.593Z,2.97
2018-07-06T20:53:55.567Z,2.77
2018-07-06T20:56:27.229Z,3.47
2018-07-06T20:58:56.093Z,4.40
2018-07-06T21:01:24.934Z,4.93
2018-07-06T21:03:53.760Z,3.37
2018-07-06T21:06:22.799Z,4.33
2018-07-06T21:08:51.770Z,4.20
2018-07-06T21:11:20.648Z,3.20
2018-07-06T21:13:49.442Z,3.17
2018-07-06T21:16:18.217Z,2.70
2018-07-06T21:18:46.998Z,2.97
2018-07-06T21:21:15.795Z,4.83
2018-07-06T21:23:44.571Z,2.80
2018-07-06T21:26:13.386Z,3.70
2018-07-06T21:28:42.178Z,4.17
2018-07-06T21:31:11.002Z,2.63
2018-07-06T21:33:39.835Z,3.20
2018-07-06T21:36:08.641Z,3.10
2018-07-06T21:38:37.458Z,3.30
2018-07-06T21:41:06.275Z,3.20
2018-07-06T21:43:35.087Z,3.37
2018-07-06T21:46:03.872Z,4.60
2018-07-06T21:48:32.680Z,2.73
2018-07-06T21:51:01.529Z,4.00
2018-07-06T21:53:30.285Z,3.07
2018-07-06T21:55:59.094Z,3.13
2018-07-06T21:58:27.894Z,3.37
2018-07-06T22:00:56.726Z,2.90
2018-07-06T22:03:25.554Z,4.47
2018-07-06T22:05:54.361Z,3.80
2018-07-06T22:08:23.154Z,3.83
2018-07-06T22:10:51.923Z,4.00
2018-07-06T22:13:20.725Z,3.40
2018-07-06T22:15:49.566Z,3.33
2018-07-06T22:18:19.442Z,3.67
2018-07-06T22:20:49.350Z,2.80
2018-07-06T22:23:18.240Z,3.40
2018-07-06T22:25:47.088Z,6.27
2018-07-06T22:28:15.878Z,3.20
2018-07-06T22:30:44.679Z,3.03
2018-07-06T22:33:13.491Z,3.00
2018-07-06T22:35:42.294Z,3.27
2018-07-06T22:38:11.098Z,3.20
2018-07-06T22:40:39.870Z,3.47
2018-07-06T22:43:08.659Z,3.33
2018-07-06T22:45:37.442Z,4.33
2018-07-06T22:48:06.272Z,3.83
2018-07-06T22:50:35.080Z,6.33
2018-07-06T22:53:03.867Z,3.10
2018-07-06T22:55:32.644Z,2.83
2018-07-06T22:58:01.435Z,3.67
2018-07-06T23:00:30.258Z,6.00
2018-07-06T23:03:04.202Z,3.27
2018-07-06T23:05:33.020Z,3.37
2018-07-06T23:08:01.822Z,4.63
2018-07-06T23:10:30.657Z,3.67
2018-07-06T23:12:59.478Z,3.97
2018-07-06T23:15:28.320Z,3.40
2018-07-06T23:17:57.106Z,3.23
2018-07-06T23:20:25.958Z,3.90
2018-07-06T23:23:02.421Z,4.30
2018-07-06T23:25:32.674Z,4.10
2018-07-06T23:28:01.466Z,3.10
2018-07-06T23:30:30.340Z,3.97
2018-07-06T23:33:00.253Z,3.43
2018-07-06T23:35:29.110Z,3.70
2018-07-06T23:37:57.910Z,4.47
2018-07-06T23:40:26.694Z,4.67
2018-07-06T23:42:55.513Z,4.37
2018-07-06T23:45:24.474Z,4.93
2018-07-06T23:47:53.323Z,3.63
2018-07-06T23:50:22.689Z,3.60
2018-07-06T23:52:51.534Z,3.60
2018-07-06T23:55:20.301Z,4.17
2018-07-06T23:57:49.255Z,3.47
